Terminal Aerodrome Forecast
Issued by NWS

Current Version | Previous Version | Graphics & Text | Print | Product List | Glossary On
Versions: 1 2 3 4 5 6 7 8 9 10 11 12 13 14 15 16 17 18
991
FTUS41 KPBZ 222337
TAFHLG
TAF
KHLG 222337Z 2300/2324 VRB03KT P6SM SKC
     FM231400 15003KT P6SM FEW250=

USA.gov is the U.S. government's official web portal to all federal, state and local government web resources and services.